YPKG

Details ICAO YPKG (KGI)
Name Kalgoorlie-Boulder
Region Australia
Timezone Australia/Perth (UTC+8.0)
Plans Departing 24
Arriving 23
Stats Elevation 1,202 ft / 366 m (AMSL)
Location -30.789118° 121.462802°
Runways 2
Magnetic Variation 0.847° E
Sunrise 2018-05-20 22:38:18 UTC / 2018-05-21 06:38:18 Local
Sunset 2018-05-21 09:05:59 UTC / 2018-05-21 17:05:59 Local
Advertisement - Login to hide

Runways

ID Width Length Bearing (true) Bearing (mag) Surface Threshold Offset Overrun Length
11 148 ft / 45 m 6,550 ft / 1,997 m 110.61° 109.76° Asphalt 0 ft / 0 m 0 ft / 0 m
18 59 ft / 18 m 3,949 ft / 1,204 m 5.53° 4.68° Asphalt 0 ft / 0 m 0 ft / 0 m
29 148 ft / 45 m 6,550 ft / 1,997 m 290.60° 289.75° Asphalt 0 ft / 0 m 0 ft / 0 m
36 59 ft / 18 m 3,949 ft / 1,204 m 185.53° 184.68° Asphalt 0 ft / 0 m 0 ft / 0 m

Map

Weather


0- 5 10 15 20 25 30 35+ Temperature / ° C

Clouds and Precipitation
Forecast for 2018-05-21 12:00 UTC. Updated an hour ago

Ground ~20,000 ft ~40,000 ft Winds

METAR

YPKG 211000Z AUTO 08004KT 9999 // NCD 17/04 Q1028

TAF

TAF AMD YPKG 210739Z 2107/2206 10010KT CAVOK FM211300 05010KT CAVOK

Frequencies

Unicom 120.60 MHz ACTIVATE LIGHTS ONLY MULT
Unicom 122.10 MHz MELBOURNE CENTRE MULT
Unicom 126.60 MHz AIR BP UNIC
Warning: Do not use this data for real-world aviation or navigation. No guarantee of current accuracy is given.